sensor_id;sensor_type;location;lat;lon;timestamp;pressure;altitude;pressure_sealevel;temperature;humidity
9474;BME280;8865;47.636;7.692;2022-08-19T00:01:50;98097.81;;;19.58;100.00
9474;BME280;8865;47.636;7.692;2022-08-19T00:04:18;98087.19;;;19.58;100.00
9474;BME280;8865;47.636;7.692;2022-08-19T00:06:46;98090.03;;;19.56;100.00
9474;BME280;8865;47.636;7.692;2022-08-19T00:09:15;98089.41;;;19.54;100.00
9474;BME280;8865;47.636;7.692;2022-08-19T00:11:42;98090.88;;;19.57;100.00
9474;BME280;8865;47.636;7.692;2022-08-19T00:14:11;98083.91;;;19.56;100.00
9474;BME280;8865;47.636;7.692;2022-08-19T00:16:38;98074.75;;;19.58;100.00
9474;BME280;8865;47.636;7.692;2022-08-19T00:19:04;98079.84;;;19.60;100.00
9474;BME280;8865;47.636;7.692;2022-08-19T00:21:31;98082.25;;;19.55;100.00
9474;BME280;8865;47.636;7.692;2022-08-19T00:23:57;98082.06;;;19.56;100.00
9474;BME280;8865;47.636;7.692;2022-08-19T00:26:27;98077.53;;;19.50;100.00
9474;BME280;8865;47.636;7.692;2022-08-19T00:28:54;98076.69;;;19.43;100.00
9474;BME280;8865;47.636;7.692;2022-08-19T00:31:20;98080.75;;;19.45;100.00
9474;BME280;8865;47.636;7.692;2022-08-19T00:33:47;98082.03;;;19.50;100.00
9474;BME280;8865;47.636;7.692;2022-08-19T00:36:14;98072.41;;;19.49;100.00
9474;BME280;8865;47.636;7.692;2022-08-19T00:38:40;98081.03;;;19.51;100.00
9474;BME280;8865;47.636;7.692;2022-08-19T00:41:16;98089.56;;;19.46;100.00
9474;BME280;8865;47.636;7.692;2022-08-19T00:43:57;98091.00;;;19.49;100.00
9474;BME280;8865;47.636;7.692;2022-08-19T00:46:24;98084.88;;;19.48;100.00
9474;BME280;8865;47.636;7.692;2022-08-19T00:48:50;98079.34;;;19.43;100.00
9474;BME280;8865;47.636;7.692;2022-08-19T00:51:15;98078.25;;;19.37;100.00
9474;BME280;8865;47.636;7.692;2022-08-19T00:53:41;98078.69;;;19.41;100.00
9474;BME280;8865;47.636;7.692;2022-08-19T00:56:09;98081.72;;;19.38;100.00
9474;BME280;8865;47.636;7.692;2022-08-19T00:58:36;98076.81;;;19.35;100.00
9474;BME280;8865;47.636;7.692;2022-08-19T01:01:04;98077.25;;;19.38;100.00
9474;BME280;8865;47.636;7.692;2022-08-19T01:03:30;98075.41;;;19.39;100.00
9474;BME280;8865;47.636;7.692;2022-08-19T01:05:56;98077.44;;;19.37;100.00
9474;BME280;8865;47.636;7.692;2022-08-19T01:08:23;98089.97;;;19.43;100.00
9474;BME280;8865;47.636;7.692;2022-08-19T01:10:54;98077.28;;;19.45;100.00
9474;BME280;8865;47.636;7.692;2022-08-19T01:13:23;98080.56;;;19.47;100.00
9474;BME280;8865;47.636;7.692;2022-08-19T01:15:55;98076.91;;;19.48;100.00
9474;BME280;8865;47.636;7.692;2022-08-19T01:18:23;98080.56;;;19.47;100.00
9474;BME280;8865;47.636;7.692;2022-08-19T01:20:51;98068.31;;;19.46;100.00
9474;BME280;8865;47.636;7.692;2022-08-19T01:23:17;98068.50;;;19.44;100.00
9474;BME280;8865;47.636;7.692;2022-08-19T01:25:49;98065.66;;;19.46;100.00
9474;BME280;8865;47.636;7.692;2022-08-19T01:28:22;98069.56;;;19.50;100.00
9474;BME280;8865;47.636;7.692;2022-08-19T01:30:48;98069.34;;;19.52;100.00
9474;BME280;8865;47.636;7.692;2022-08-19T01:33:15;98068.06;;;19.41;100.00
9474;BME280;8865;47.636;7.692;2022-08-19T01:35:41;98067.22;;;19.34;100.00
9474;BME280;8865;47.636;7.692;2022-08-19T01:38:18;98064.75;;;19.32;100.00
9474;BME280;8865;47.636;7.692;2022-08-19T01:40:44;98064.16;;;19.37;100.00
9474;BME280;8865;47.636;7.692;2022-08-19T01:43:10;98069.28;;;19.38;100.00
9474;BME280;8865;47.636;7.692;2022-08-19T01:45:37;98074.03;;;19.43;100.00
9474;BME280;8865;47.636;7.692;2022-08-19T01:48:06;98066.44;;;19.40;100.00
9474;BME280;8865;47.636;7.692;2022-08-19T01:50:34;98067.84;;;19.36;100.00
9474;BME280;8865;47.636;7.692;2022-08-19T01:53:02;98071.69;;;19.33;100.00
9474;BME280;8865;47.636;7.692;2022-08-19T01:55:29;98065.56;;;19.33;100.00
9474;BME280;8865;47.636;7.692;2022-08-19T01:57:58;98067.84;;;19.36;100.00
9474;BME280;8865;47.636;7.692;2022-08-19T02:00:28;98076.88;;;19.41;100.00
9474;BME280;8865;47.636;7.692;2022-08-19T02:02:55;98072.19;;;19.43;100.00
9474;BME280;8865;47.636;7.692;2022-08-19T02:05:22;98070.72;;;19.41;100.00
9474;BME280;8865;47.636;7.692;2022-08-19T02:07:49;98068.06;;;19.41;100.00
9474;BME280;8865;47.636;7.692;2022-08-19T02:10:19;98056.81;;;19.39;100.00
9474;BME280;8865;47.636;7.692;2022-08-19T02:12:46;98048.44;;;19.35;100.00
9474;BME280;8865;47.636;7.692;2022-08-19T02:15:12;98050.00;;;19.30;100.00
9474;BME280;8865;47.636;7.692;2022-08-19T02:17:38;98053.22;;;19.18;100.00
9474;BME280;8865;47.636;7.692;2022-08-19T02:20:05;98060.13;;;19.19;100.00
9474;BME280;8865;47.636;7.692;2022-08-19T02:22:33;98063.34;;;19.08;100.00
9474;BME280;8865;47.636;7.692;2022-08-19T02:24:59;98068.41;;;19.03;100.00
9474;BME280;8865;47.636;7.692;2022-08-19T02:27:25;98076.38;;;19.03;100.00
9474;BME280;8865;47.636;7.692;2022-08-19T02:29:52;98078.25;;;19.09;100.00
9474;BME280;8865;47.636;7.692;2022-08-19T02:32:19;98066.88;;;19.15;100.00
9474;BME280;8865;47.636;7.692;2022-08-19T02:34:46;98073.38;;;19.13;100.00
9474;BME280;8865;47.636;7.692;2022-08-19T02:37:13;98072.38;;;19.14;100.00
9474;BME280;8865;47.636;7.692;2022-08-19T02:39:58;98075.06;;;19.20;100.00
9474;BME280;8865;47.636;7.692;2022-08-19T02:42:25;98069.75;;;19.20;100.00
9474;BME280;8865;47.636;7.692;2022-08-19T02:44:51;98066.50;;;19.18;100.00
9474;BME280;8865;47.636;7.692;2022-08-19T02:47:18;98074.06;;;19.21;100.00
9474;BME280;8865;47.636;7.692;2022-08-19T02:49:45;98070.09;;;19.11;100.00
9474;BME280;8865;47.636;7.692;2022-08-19T02:52:11;98071.72;;;19.12;100.00
9474;BME280;8865;47.636;7.692;2022-08-19T02:54:38;98075.41;;;19.11;100.00
9474;BME280;8865;47.636;7.692;2022-08-19T02:57:04;98081.09;;;19.07;100.00
9474;BME280;8865;47.636;7.692;2022-08-19T02:59:32;98073.72;;;19.03;100.00
9474;BME280;8865;47.636;7.692;2022-08-19T03:01:58;98076.97;;;19.05;100.00
9474;BME280;8865;47.636;7.692;2022-08-19T03:04:24;98059.22;;;19.05;100.00
9474;BME280;8865;47.636;7.692;2022-08-19T03:06:50;98065.56;;;19.04;100.00
9474;BME280;8865;47.636;7.692;2022-08-19T03:09:19;98070.09;;;19.11;100.00
9474;BME280;8865;47.636;7.692;2022-08-19T03:11:45;98077.03;;;19.12;100.00
9474;BME280;8865;47.636;7.692;2022-08-19T03:14:12;98076.03;;;19.13;100.00
9474;BME280;8865;47.636;7.692;2022-08-19T03:16:44;98084.19;;;19.11;100.00
9474;BME280;8865;47.636;7.692;2022-08-19T03:19:12;98082.16;;;19.13;100.00
9474;BME280;8865;47.636;7.692;2022-08-19T03:21:38;98080.16;;;19.15;100.00
9474;BME280;8865;47.636;7.692;2022-08-19T03:24:07;98088.50;;;19.12;100.00
9474;BME280;8865;47.636;7.692;2022-08-19T03:26:38;98089.13;;;19.14;100.00
9474;BME280;8865;47.636;7.692;2022-08-19T03:29:04;98092.38;;;19.16;100.00
9474;BME280;8865;47.636;7.692;2022-08-19T03:31:31;98101.38;;;19.15;100.00
9474;BME280;8865;47.636;7.692;2022-08-19T03:33:57;98109.59;;;19.20;100.00
9474;BME280;8865;47.636;7.692;2022-08-19T03:36:25;98110.47;;;19.27;100.00
9474;BME280;8865;47.636;7.692;2022-08-19T03:38:53;98106.78;;;19.28;100.00
9474;BME280;8865;47.636;7.692;2022-08-19T03:41:23;98094.53;;;19.27;100.00
9474;BME280;8865;47.636;7.692;2022-08-19T03:43:50;98104.78;;;19.31;100.00
9474;BME280;8865;47.636;7.692;2022-08-19T03:46:19;98102.94;;;19.31;100.00
9474;BME280;8865;47.636;7.692;2022-08-19T03:48:51;98110.72;;;19.33;100.00
9474;BME280;8865;47.636;7.692;2022-08-19T03:51:23;98102.13;;;19.31;100.00
9474;BME280;8865;47.636;7.692;2022-08-19T03:53:52;98091.50;;;19.31;100.00
9474;BME280;8865;47.636;7.692;2022-08-19T03:56:18;98089.66;;;19.31;100.00
9474;BME280;8865;47.636;7.692;2022-08-19T03:58:44;98084.78;;;19.35;100.00
9474;BME280;8865;47.636;7.692;2022-08-19T04:01:14;98080.50;;;19.34;100.00
9474;BME280;8865;47.636;7.692;2022-08-19T04:03:40;98085.16;;;19.32;100.00
9474;BME280;8865;47.636;7.692;2022-08-19T04:06:25;98082.50;;;19.32;100.00
9474;BME280;8865;47.636;7.692;2022-08-19T04:08:53;98085.34;;;19.30;100.00
9474;BME280;8865;47.636;7.692;2022-08-19T04:11:22;98092.75;;;19.35;100.00
9474;BME280;8865;47.636;7.692;2022-08-19T04:13:50;98100.47;;;19.30;100.00
9474;BME280;8865;47.636;7.692;2022-08-19T04:16:18;98098.19;;;19.26;100.00
9474;BME280;8865;47.636;7.692;2022-08-19T04:18:46;98114.69;;;19.22;100.00
9474;BME280;8865;47.636;7.692;2022-08-19T04:21:22;98103.38;;;19.13;100.00
9474;BME280;8865;47.636;7.692;2022-08-19T04:23:48;98101.19;;;19.17;100.00
9474;BME280;8865;47.636;7.692;2022-08-19T04:26:17;98096.06;;;19.15;100.00
9474;BME280;8865;47.636;7.692;2022-08-19T04:28:49;98091.56;;;19.16;100.00
9474;BME280;8865;47.636;7.692;2022-08-19T04:31:23;98102.88;;;19.24;100.00
9474;BME280;8865;47.636;7.692;2022-08-19T04:33:56;98090.63;;;19.23;100.00
9474;BME280;8865;47.636;7.692;2022-08-19T04:36:35;98096.94;;;19.22;100.00
9474;BME280;8865;47.636;7.692;2022-08-19T04:39:07;98098.53;;;19.17;100.00
9474;BME280;8865;47.636;7.692;2022-08-19T04:41:34;98104.66;;;19.17;100.00
9474;BME280;8865;47.636;7.692;2022-08-19T04:44:19;98099.72;;;19.14;100.00
9474;BME280;8865;47.636;7.692;2022-08-19T04:46:47;98109.34;;;19.15;100.00
9474;BME280;8865;47.636;7.692;2022-08-19T04:49:14;98109.16;;;19.17;100.00
9474;BME280;8865;47.636;7.692;2022-08-19T04:51:43;98101.19;;;19.17;100.00
9474;BME280;8865;47.636;7.692;2022-08-19T04:54:10;98112.06;;;19.22;100.00
9474;BME280;8865;47.636;7.692;2022-08-19T04:56:38;98112.47;;;19.25;100.00
9474;BME280;8865;47.636;7.692;2022-08-19T04:59:05;98108.81;;;19.26;100.00
9474;BME280;8865;47.636;7.692;2022-08-19T05:01:32;98113.31;;;19.26;100.00
9474;BME280;8865;47.636;7.692;2022-08-19T05:04:00;98112.75;;;19.31;100.00
9474;BME280;8865;47.636;7.692;2022-08-19T05:06:27;98110.28;;;19.29;100.00
9474;BME280;8865;47.636;7.692;2022-08-19T05:08:54;98110.09;;;19.31;100.00
9474;BME280;8865;47.636;7.692;2022-08-19T05:11:35;98117.66;;;19.34;100.00
9474;BME280;8865;47.636;7.692;2022-08-19T05:14:03;98120.31;;;19.34;100.00
9474;BME280;8865;47.636;7.692;2022-08-19T05:16:29;98122.16;;;19.33;100.00
9474;BME280;8865;47.636;7.692;2022-08-19T05:18:55;98109.25;;;19.30;100.00
9474;BME280;8865;47.636;7.692;2022-08-19T05:21:42;98105.78;;;19.30;100.00
9474;BME280;8865;47.636;7.692;2022-08-19T05:24:27;98112.75;;;19.31;100.00
9474;BME280;8865;47.636;7.692;2022-08-19T05:26:53;98124.81;;;19.33;100.00
9474;BME280;8865;47.636;7.692;2022-08-19T05:29:24;98139.34;;;19.37;100.00
9474;BME280;8865;47.636;7.692;2022-08-19T05:31:52;98131.38;;;19.37;100.00
9474;BME280;8865;47.636;7.692;2022-08-19T05:34:20;98142.44;;;19.41;100.00
9474;BME280;8865;47.636;7.692;2022-08-19T05:36:56;98152.88;;;19.42;100.00
9474;BME280;8865;47.636;7.692;2022-08-19T05:39:25;98152.66;;;19.44;100.00
9474;BME280;8865;47.636;7.692;2022-08-19T05:41:55;98153.72;;;19.43;100.00
9474;BME280;8865;47.636;7.692;2022-08-19T05:44:28;98155.53;;;19.42;100.00
9474;BME280;8865;47.636;7.692;2022-08-19T05:47:00;98153.72;;;19.43;100.00
9474;BME280;8865;47.636;7.692;2022-08-19T05:49:28;98154.31;;;19.45;100.00
9474;BME280;8865;47.636;7.692;2022-08-19T05:51:55;98149.63;;;19.47;100.00
9474;BME280;8865;47.636;7.692;2022-08-19T05:54:23;98159.44;;;19.47;100.00
9474;BME280;8865;47.636;7.692;2022-08-19T05:56:51;98164.56;;;19.48;100.00
9474;BME280;8865;47.636;7.692;2022-08-19T05:59:19;98171.53;;;19.49;100.00
9474;BME280;8865;47.636;7.692;2022-08-19T06:01:48;98172.91;;;19.45;100.00
9474;BME280;8865;47.636;7.692;2022-08-19T06:04:18;98164.56;;;19.48;100.00
9474;BME280;8865;47.636;7.692;2022-08-19T06:06:46;98169.06;;;19.48;100.00
9474;BME280;8865;47.636;7.692;2022-08-19T06:09:13;98173.16;;;19.50;100.00
9474;BME280;8865;47.636;7.692;2022-08-19T06:11:46;98175.19;;;19.48;100.00
9474;BME280;8865;47.636;7.692;2022-08-19T06:14:18;98165.38;;;19.49;100.00
9474;BME280;8865;47.636;7.692;2022-08-19T06:16:46;98171.25;;;19.44;100.00
9474;BME280;8865;47.636;7.692;2022-08-19T06:19:16;98171.25;;;19.44;100.00
9474;BME280;8865;47.636;7.692;2022-08-19T06:21:45;98164.75;;;19.47;100.00
9474;BME280;8865;47.636;7.692;2022-08-19T06:24:15;98170.75;;;19.55;100.00
9474;BME280;8865;47.636;7.692;2022-08-19T06:26:44;98174.41;;;19.54;100.00
9474;BME280;8865;47.636;7.692;2022-08-19T06:29:13;98173.16;;;19.50;100.00
9474;BME280;8865;47.636;7.692;2022-08-19T06:31:42;98153.13;;;19.48;100.00
9474;BME280;8865;47.636;7.692;2022-08-19T06:34:10;98145.09;;;19.41;100.00
9474;BME280;8865;47.636;7.692;2022-08-19T06:36:38;98145.56;;;19.23;100.00
9474;BME280;8865;47.636;7.692;2022-08-19T06:39:13;98151.13;;;19.28;100.00
9474;BME280;8865;47.636;7.692;2022-08-19T06:41:44;98161.78;;;19.35;100.00
9474;BME280;8865;47.636;7.692;2022-08-19T06:44:11;98160.03;;;19.42;100.00
9474;BME280;8865;47.636;7.692;2022-08-19T06:46:38;98162.28;;;19.45;100.00
9474;BME280;8865;47.636;7.692;2022-08-19T06:49:05;98179.50;;;19.49;100.00
9474;BME280;8865;47.636;7.692;2022-08-19T06:51:31;98171.72;;;19.48;100.00
9474;BME280;8865;47.636;7.692;2022-08-19T06:53:58;98161.91;;;19.48;100.00
9474;BME280;8865;47.636;7.692;2022-08-19T06:56:28;98165.19;;;19.50;100.00
9474;BME280;8865;47.636;7.692;2022-08-19T06:59:06;98162.75;;;19.27;100.00
9474;BME280;8865;47.636;7.692;2022-08-19T07:01:42;98154.66;;;19.35;100.00
9474;BME280;8865;47.636;7.692;2022-08-19T07:04:10;98157.66;;;19.54;100.00
9474;BME280;8865;47.636;7.692;2022-08-19T07:06:36;98167.16;;;19.63;100.00
9474;BME280;8865;47.636;7.692;2022-08-19T07:09:04;98173.50;;;19.69;100.00
9474;BME280;8865;47.636;7.692;2022-08-19T07:11:30;98165.78;;;19.74;100.00
9474;BME280;8865;47.636;7.692;2022-08-19T07:14:02;98165.78;;;19.74;100.00
9474;BME280;8865;47.636;7.692;2022-08-19T07:16:28;98166.09;;;19.64;100.00
9474;BME280;8865;47.636;7.692;2022-08-19T07:18:55;98182.19;;;19.56;100.00
9474;BME280;8865;47.636;7.692;2022-08-19T07:21:24;98192.06;;;19.62;100.00
9474;BME280;8865;47.636;7.692;2022-08-19T07:23:54;98197.81;;;19.66;100.00
9474;BME280;8865;47.636;7.692;2022-08-19T07:26:24;98203.56;;;19.69;100.00
9474;BME280;8865;47.636;7.692;2022-08-19T07:28:50;98206.03;;;19.71;100.00
9474;BME280;8865;47.636;7.692;2022-08-19T07:31:19;98213.63;;;19.74;100.00
9474;BME280;8865;47.636;7.692;2022-08-19T07:33:47;98209.94;;;19.75;100.00
9474;BME280;8865;47.636;7.692;2022-08-19T07:36:15;98206.13;;;19.56;100.00
9474;BME280;8865;47.636;7.692;2022-08-19T07:38:44;98197.81;;;19.44;100.00
9474;BME280;8865;47.636;7.692;2022-08-19T07:41:17;98204.47;;;19.55;100.00
9474;BME280;8865;47.636;7.692;2022-08-19T07:43:43;98203.50;;;19.62;100.00
9474;BME280;8865;47.636;7.692;2022-08-19T07:46:10;98207.03;;;19.70;100.00
9474;BME280;8865;47.636;7.692;2022-08-19T07:48:38;98195.22;;;19.72;100.00
9474;BME280;8865;47.636;7.692;2022-08-19T07:51:06;98202.81;;;19.75;100.00
9474;BME280;8865;47.636;7.692;2022-08-19T07:53:36;98203.25;;;19.79;100.00
9474;BME280;8865;47.636;7.692;2022-08-19T07:56:04;98197.41;;;19.69;100.00
9474;BME280;8865;47.636;7.692;2022-08-19T07:58:33;98205.72;;;19.80;100.00
9474;BME280;8865;47.636;7.692;2022-08-19T08:01:00;98211.59;;;19.76;100.00
9474;BME280;8865;47.636;7.692;2022-08-19T08:03:27;98214.13;;;19.84;100.00
9474;BME280;8865;47.636;7.692;2022-08-19T08:06:14;98214.00;;;19.92;100.00
9474;BME280;8865;47.636;7.692;2022-08-19T08:08:59;98222.59;;;19.94;100.00
9474;BME280;8865;47.636;7.692;2022-08-19T08:11:56;98224.88;;;19.97;100.00
9474;BME280;8865;47.636;7.692;2022-08-19T08:14:29;98218.09;;;19.95;100.00
9474;BME280;8865;47.636;7.692;2022-08-19T08:16:56;98220.03;;;20.08;100.00
9474;BME280;8865;47.636;7.692;2022-08-19T08:19:24;98217.00;;;20.11;100.00
9474;BME280;8865;47.636;7.692;2022-08-19T08:21:50;98217.88;;;20.18;100.00
9474;BME280;8865;47.636;7.692;2022-08-19T08:24:17;98228.94;;;20.28;100.00
9474;BME280;8865;47.636;7.692;2022-08-19T08:26:43;98230.81;;;20.34;100.00
9474;BME280;8865;47.636;7.692;2022-08-19T08:29:11;98226.19;;;20.50;100.00
9474;BME280;8865;47.636;7.692;2022-08-19T08:31:37;98226.72;;;20.67;100.00
9474;BME280;8865;47.636;7.692;2022-08-19T08:34:03;98208.34;;;20.72;100.00
9474;BME280;8865;47.636;7.692;2022-08-19T08:36:29;98205.50;;;20.80;100.00
9474;BME280;8865;47.636;7.692;2022-08-19T08:38:59;98204.50;;;20.88;100.00
9474;BME280;8865;47.636;7.692;2022-08-19T08:43:57;98220.06;;;20.84;100.00
9474;BME280;8865;47.636;7.692;2022-08-19T08:46:44;98231.06;;;20.75;100.00
9474;BME280;8865;47.636;7.692;2022-08-19T08:51:51;98248.13;;;20.52;100.00
9474;BME280;8865;47.636;7.692;2022-08-19T08:54:20;98245.56;;;20.65;100.00
9474;BME280;8865;47.636;7.692;2022-08-19T08:56:51;98238.72;;;20.56;100.00
9474;BME280;8865;47.636;7.692;2022-08-19T08:59:35;98236.44;;;20.53;100.00
9474;BME280;8865;47.636;7.692;2022-08-19T09:02:02;98238.69;;;20.49;100.00
9474;BME280;8865;47.636;7.692;2022-08-19T09:04:29;98246.94;;;20.61;100.00
9474;BME280;8865;47.636;7.692;2022-08-19T09:07:16;98245.69;;;20.57;100.00
9474;BME280;8865;47.636;7.692;2022-08-19T09:09:51;98243.34;;;20.69;100.00
9474;BME280;8865;47.636;7.692;2022-08-19T09:15:09;98248.88;;;20.74;100.00
9474;BME280;8865;47.636;7.692;2022-08-19T09:17:37;98252.41;;;20.81;100.00
9474;BME280;8865;47.636;7.692;2022-08-19T09:20:14;98253.22;;;20.82;100.00
9474;BME280;8865;47.636;7.692;2022-08-19T09:22:41;98246.03;;;20.76;100.00
9474;BME280;8865;47.636;7.692;2022-08-19T09:25:14;98257.94;;;20.86;100.00
9474;BME280;8865;47.636;7.692;2022-08-19T09:27:41;98262.88;;;20.96;100.00
9474;BME280;8865;47.636;7.692;2022-08-19T09:30:19;98262.53;;;21.06;100.00
9474;BME280;8865;47.636;7.692;2022-08-19T09:32:47;98252.69;;;21.00;100.00
9474;BME280;8865;47.636;7.692;2022-08-19T09:35:14;98258.66;;;21.09;100.00
9474;BME280;8865;47.636;7.692;2022-08-19T09:37:41;98248.16;;;21.00;100.00
9474;BME280;8865;47.636;7.692;2022-08-19T09:40:08;98246.75;;;21.11;100.00
9474;BME280;8865;47.636;7.692;2022-08-19T09:42:34;98259.72;;;21.21;100.00
9474;BME280;8865;47.636;7.692;2022-08-19T09:45:01;98253.16;;;21.23;100.00
9474;BME280;8865;47.636;7.692;2022-08-19T09:47:28;98265.84;;;21.21;100.00
9474;BME280;8865;47.636;7.692;2022-08-19T09:49:54;98269.31;;;21.22;100.00
9474;BME280;8865;47.636;7.692;2022-08-19T09:52:20;98273.66;;;21.23;100.00
9474;BME280;8865;47.636;7.692;2022-08-19T09:54:46;98276.72;;;21.27;100.00
9474;BME280;8865;47.636;7.692;2022-08-19T09:57:12;98265.66;;;21.30;100.00
9474;BME280;8865;47.636;7.692;2022-08-19T09:59:38;98271.63;;;21.45;100.00
9474;BME280;8865;47.636;7.692;2022-08-19T10:02:05;98254.44;;;21.48;100.00
9474;BME280;8865;47.636;7.692;2022-08-19T10:04:31;98267.59;;;21.49;100.00
9474;BME280;8865;47.636;7.692;2022-08-19T10:07:15;98268.78;;;21.47;100.00
9474;BME280;8865;47.636;7.692;2022-08-19T10:09:42;98277.56;;;21.40;100.00
9474;BME280;8865;47.636;7.692;2022-08-19T10:12:08;98282.28;;;21.38;100.00
9474;BME280;8865;47.636;7.692;2022-08-19T10:14:35;98275.72;;;21.34;100.00
9474;BME280;8865;47.636;7.692;2022-08-19T10:17:01;98271.00;;;21.30;100.00
9474;BME280;8865;47.636;7.692;2022-08-19T10:19:28;98285.75;;;21.26;100.00
9474;BME280;8865;47.636;7.692;2022-08-19T10:22:07;98280.78;;;21.16;100.00
9474;BME280;8865;47.636;7.692;2022-08-19T10:24:34;98272.38;;;21.12;100.00
9474;BME280;8865;47.636;7.692;2022-08-19T10:27:01;98269.91;;;21.11;100.00
9474;BME280;8865;47.636;7.692;2022-08-19T10:29:30;98272.78;;;21.09;100.00
9474;BME280;8865;47.636;7.692;2022-08-19T10:31:58;98263.53;;;20.98;100.00
9474;BME280;8865;47.636;7.692;2022-08-19T10:34:26;98270.25;;;20.94;100.00
9474;BME280;8865;47.636;7.692;2022-08-19T10:36:52;98269.88;;;20.97;100.00
9474;BME280;8865;47.636;7.692;2022-08-19T10:39:18;98272.97;;;21.08;100.00
9474;BME280;8865;47.636;7.692;2022-08-19T10:41:44;98280.19;;;21.20;100.00
9474;BME280;8865;47.636;7.692;2022-08-19T10:44:12;98283.72;;;21.34;100.00
9474;BME280;8865;47.636;7.692;2022-08-19T10:46:40;98285.41;;;21.49;100.00
9474;BME280;8865;47.636;7.692;2022-08-19T10:49:11;98271.69;;;21.58;100.00
9474;BME280;8865;47.636;7.692;2022-08-19T10:51:38;98261.88;;;21.66;100.00
9474;BME280;8865;47.636;7.692;2022-08-19T10:54:23;98246.09;;;21.64;100.00
9474;BME280;8865;47.636;7.692;2022-08-19T10:57:10;98234.00;;;21.75;100.00
9474;BME280;8865;47.636;7.692;2022-08-19T10:59:36;98238.72;;;21.80;100.00
9474;BME280;8865;47.636;7.692;2022-08-19T11:02:06;98239.31;;;21.82;100.00
9474;BME280;8865;47.636;7.692;2022-08-19T11:04:33;98246.06;;;21.77;100.00
9474;BME280;8865;47.636;7.692;2022-08-19T11:06:59;98253.25;;;21.77;100.00
9474;BME280;8865;47.636;7.692;2022-08-19T11:09:26;98246.88;;;21.71;100.00
9474;BME280;8865;47.636;7.692;2022-08-19T11:11:53;98265.97;;;21.75;100.00
9474;BME280;8865;47.636;7.692;2022-08-19T11:14:20;98253.25;;;21.84;100.00
9474;BME280;8865;47.636;7.692;2022-08-19T11:16:48;98249.97;;;21.82;100.00
9474;BME280;8865;47.636;7.692;2022-08-19T11:21:44;98253.25;;;21.77;100.00
9474;BME280;8865;47.636;7.692;2022-08-19T11:24:13;98266.38;;;21.72;100.00
9474;BME280;8865;47.636;7.692;2022-08-19T11:26:40;98257.75;;;21.63;100.00
9474;BME280;8865;47.636;7.692;2022-08-19T11:29:08;98261.41;;;21.49;100.00
9474;BME280;8865;47.636;7.692;2022-08-19T11:31:43;98273.09;;;21.41;100.00
9474;BME280;8865;47.636;7.692;2022-08-19T11:34:15;98276.97;;;21.38;100.00
9474;BME280;8865;47.636;7.692;2022-08-19T11:36:43;98286.59;;;21.39;100.00
9474;BME280;8865;47.636;7.692;2022-08-19T11:39:13;98298.47;;;21.44;100.00
9474;BME280;8865;47.636;7.692;2022-08-19T11:41:40;98294.28;;;21.63;100.00
9474;BME280;8865;47.636;7.692;2022-08-19T11:44:06;98261.88;;;21.86;100.00
9474;BME280;8865;47.636;7.692;2022-08-19T11:46:35;98243.63;;;22.16;100.00
9474;BME280;8865;47.636;7.692;2022-08-19T11:49:03;98231.47;;;22.40;100.00
9474;BME280;8865;47.636;7.692;2022-08-19T11:51:31;98231.19;;;22.69;100.00
9474;BME280;8865;47.636;7.692;2022-08-19T11:53:58;98228.88;;;22.79;100.00
9474;BME280;8865;47.636;7.692;2022-08-19T11:56:26;98234.50;;;22.64;100.00
9474;BME280;8865;47.636;7.692;2022-08-19T11:58:53;98233.63;;;22.77;100.00
9474;BME280;8865;47.636;7.692;2022-08-19T12:01:21;98223.56;;;22.72;100.00
9474;BME280;8865;47.636;7.692;2022-08-19T12:03:49;98240.25;;;22.61;100.00
9474;BME280;8865;47.636;7.692;2022-08-19T12:06:26;98236.41;;;22.30;100.00
9474;BME280;8865;47.636;7.692;2022-08-19T12:08:58;98235.00;;;22.21;100.00
9474;BME280;8865;47.636;7.692;2022-08-19T12:11:25;98254.06;;;22.18;100.00
9474;BME280;8865;47.636;7.692;2022-08-19T12:13:51;98239.31;;;22.02;100.00
9474;BME280;8865;47.636;7.692;2022-08-19T12:16:21;98252.03;;;21.93;100.00
9474;BME280;8865;47.636;7.692;2022-08-19T12:18:50;98234.19;;;21.73;100.00
9474;BME280;8865;47.636;7.692;2022-08-19T12:21:19;98246.06;;;21.51;100.00
9474;BME280;8865;47.636;7.692;2022-08-19T12:23:48;98260.13;;;21.31;100.00
9474;BME280;8865;47.636;7.692;2022-08-19T12:26:16;98276.50;;;21.28;100.00
9474;BME280;8865;47.636;7.692;2022-08-19T12:28:42;98297.22;;;21.26;100.00
9474;BME280;8865;47.636;7.692;2022-08-19T12:31:09;98308.66;;;21.13;100.00
9474;BME280;8865;47.636;7.692;2022-08-19T12:33:38;98314.19;;;21.12;100.00
9474;BME280;8865;47.636;7.692;2022-08-19T12:36:09;98307.16;;;21.04;100.00
9474;BME280;8865;47.636;7.692;2022-08-19T12:38:36;98294.22;;;20.94;100.00
9474;BME280;8865;47.636;7.692;2022-08-19T12:41:03;98273.94;;;20.93;100.00
9474;BME280;8865;47.636;7.692;2022-08-19T12:43:35;98282.78;;;21.00;100.00
9474;BME280;8865;47.636;7.692;2022-08-19T12:46:03;98301.47;;;21.07;100.00
9474;BME280;8865;47.636;7.692;2022-08-19T12:48:31;98312.13;;;21.14;100.00
9474;BME280;8865;47.636;7.692;2022-08-19T12:50:57;98318.94;;;21.23;100.00
9474;BME280;8865;47.636;7.692;2022-08-19T12:53:23;98322.66;;;21.29;100.00
9474;BME280;8865;47.636;7.692;2022-08-19T12:55:55;98330.00;;;21.27;100.00
9474;BME280;8865;47.636;7.692;2022-08-19T12:58:22;98332.47;;;21.28;100.00
9474;BME280;8865;47.636;7.692;2022-08-19T13:00:49;98330.19;;;21.25;100.00
9474;BME280;8865;47.636;7.692;2022-08-19T13:03:15;98331.84;;;21.19;100.00
9474;BME280;8865;47.636;7.692;2022-08-19T13:05:41;98330.38;;;21.17;100.00
9474;BME280;8865;47.636;7.692;2022-08-19T13:08:07;98334.44;;;21.13;100.00
9474;BME280;8865;47.636;7.692;2022-08-19T13:10:35;98337.97;;;21.20;100.00
9474;BME280;8865;47.636;7.692;2022-08-19T13:13:03;98341.69;;;21.26;100.00
9474;BME280;8865;47.636;7.692;2022-08-19T13:15:34;98335.13;;;21.28;100.00
9474;BME280;8865;47.636;7.692;2022-08-19T13:18:01;98315.06;;;21.32;100.00
9474;BME280;8865;47.636;7.692;2022-08-19T13:20:27;98300.69;;;21.20;100.00
9474;BME280;8865;47.636;7.692;2022-08-19T13:22:54;98297.34;;;21.04;100.00
9474;BME280;8865;47.636;7.692;2022-08-19T13:25:20;98291.81;;;21.06;100.00
9474;BME280;8865;47.636;7.692;2022-08-19T13:27:48;98287.56;;;21.12;100.00
9474;BME280;8865;47.636;7.692;2022-08-19T13:30:15;98288.38;;;21.19;100.00